sensor_id;sensor_type;location;lat;lon;timestamp;P1;durP1;ratioP1;P2;durP2;ratioP2
77170;SDS011;66144;50.020;14.422;2023-07-22T00:00:29;6.88;;;4.40;;
77170;SDS011;66144;50.020;14.422;2023-07-22T00:02:54;8.60;;;4.68;;
77170;SDS011;66144;50.020;14.422;2023-07-22T00:05:20;9.70;;;5.18;;
77170;SDS011;66144;50.020;14.422;2023-07-22T00:07:48;6.32;;;3.67;;
77170;SDS011;66144;50.020;14.422;2023-07-22T00:10:17;8.45;;;4.05;;
77170;SDS011;66144;50.020;14.422;2023-07-22T00:12:43;5.88;;;4.15;;
77170;SDS011;66144;50.020;14.422;2023-07-22T00:15:08;6.32;;;4.13;;
77170;SDS011;66144;50.020;14.422;2023-07-22T00:17:37;5.32;;;3.60;;
77170;SDS011;66144;50.020;14.422;2023-07-22T00:20:03;5.38;;;3.85;;
77170;SDS011;66144;50.020;14.422;2023-07-22T00:22:30;7.07;;;4.05;;
77170;SDS011;66144;50.020;14.422;2023-07-22T00:24:56;5.75;;;3.92;;
77170;SDS011;66144;50.020;14.422;2023-07-22T00:27:25;8.93;;;4.78;;
77170;SDS011;66144;50.020;14.422;2023-07-22T00:29:50;7.45;;;4.28;;
77170;SDS011;66144;50.020;14.422;2023-07-22T00:32:15;6.82;;;3.97;;
77170;SDS011;66144;50.020;14.422;2023-07-22T00:34:41;6.43;;;3.78;;
77170;SDS011;66144;50.020;14.422;2023-07-22T00:37:06;5.55;;;3.53;;
77170;SDS011;66144;50.020;14.422;2023-07-22T00:39:32;6.25;;;3.40;;
77170;SDS011;66144;50.020;14.422;2023-07-22T00:41:57;5.82;;;3.30;;
77170;SDS011;66144;50.020;14.422;2023-07-22T00:44:22;6.93;;;4.05;;
77170;SDS011;66144;50.020;14.422;2023-07-22T00:46:48;5.30;;;3.70;;
77170;SDS011;66144;50.020;14.422;2023-07-22T00:49:14;5.38;;;3.25;;
77170;SDS011;66144;50.020;14.422;2023-07-22T00:51:40;5.82;;;3.70;;
77170;SDS011;66144;50.020;14.422;2023-07-22T00:54:05;5.22;;;3.67;;
77170;SDS011;66144;50.020;14.422;2023-07-22T00:56:35;7.20;;;3.60;;
77170;SDS011;66144;50.020;14.422;2023-07-22T00:59:02;6.97;;;3.30;;
77170;SDS011;66144;50.020;14.422;2023-07-22T01:01:27;4.95;;;3.08;;
77170;SDS011;66144;50.020;14.422;2023-07-22T01:03:53;4.93;;;3.10;;
77170;SDS011;66144;50.020;14.422;2023-07-22T01:06:19;5.30;;;3.20;;
77170;SDS011;66144;50.020;14.422;2023-07-22T01:08:45;6.25;;;3.17;;
77170;SDS011;66144;50.020;14.422;2023-07-22T01:11:11;7.03;;;3.15;;
77170;SDS011;66144;50.020;14.422;2023-07-22T01:13:37;4.80;;;3.42;;
77170;SDS011;66144;50.020;14.422;2023-07-22T01:16:04;5.35;;;3.53;;
77170;SDS011;66144;50.020;14.422;2023-07-22T01:18:31;6.25;;;2.83;;
77170;SDS011;66144;50.020;14.422;2023-07-22T01:20:58;6.85;;;3.13;;
77170;SDS011;66144;50.020;14.422;2023-07-22T01:23:23;5.95;;;3.28;;
77170;SDS011;66144;50.020;14.422;2023-07-22T01:25:49;4.40;;;3.00;;
77170;SDS011;66144;50.020;14.422;2023-07-22T01:28:15;6.00;;;3.05;;
77170;SDS011;66144;50.020;14.422;2023-07-22T01:30:40;5.18;;;2.67;;
77170;SDS011;66144;50.020;14.422;2023-07-22T01:33:06;6.00;;;3.03;;
77170;SDS011;66144;50.020;14.422;2023-07-22T01:35:31;4.00;;;2.63;;
77170;SDS011;66144;50.020;14.422;2023-07-22T01:37:57;4.57;;;3.22;;
77170;SDS011;66144;50.020;14.422;2023-07-22T01:40:24;5.35;;;2.80;;
77170;SDS011;66144;50.020;14.422;2023-07-22T01:42:49;5.65;;;2.83;;
77170;SDS011;66144;50.020;14.422;2023-07-22T01:45:15;5.03;;;2.85;;
77170;SDS011;66144;50.020;14.422;2023-07-22T01:47:40;3.97;;;2.30;;
77170;SDS011;66144;50.020;14.422;2023-07-22T01:50:06;5.50;;;3.60;;
77170;SDS011;66144;50.020;14.422;2023-07-22T01:52:32;6.47;;;2.95;;
77170;SDS011;66144;50.020;14.422;2023-07-22T01:54:57;4.88;;;2.75;;
77170;SDS011;66144;50.020;14.422;2023-07-22T01:57:23;4.15;;;2.55;;
77170;SDS011;66144;50.020;14.422;2023-07-22T01:59:48;5.15;;;3.15;;
77170;SDS011;66144;50.020;14.422;2023-07-22T02:02:13;6.25;;;3.10;;
77170;SDS011;66144;50.020;14.422;2023-07-22T02:04:39;5.45;;;3.03;;
77170;SDS011;66144;50.020;14.422;2023-07-22T02:07:04;5.72;;;2.60;;
77170;SDS011;66144;50.020;14.422;2023-07-22T02:09:31;4.65;;;2.33;;
77170;SDS011;66144;50.020;14.422;2023-07-22T02:11:57;4.75;;;3.00;;
77170;SDS011;66144;50.020;14.422;2023-07-22T02:14:23;4.05;;;2.70;;
77170;SDS011;66144;50.020;14.422;2023-07-22T02:16:48;6.53;;;3.05;;
77170;SDS011;66144;50.020;14.422;2023-07-22T02:19:14;5.97;;;3.17;;
77170;SDS011;66144;50.020;14.422;2023-07-22T02:21:40;4.68;;;2.95;;
77170;SDS011;66144;50.020;14.422;2023-07-22T02:24:06;5.53;;;3.10;;
77170;SDS011;66144;50.020;14.422;2023-07-22T02:26:32;5.70;;;3.30;;
77170;SDS011;66144;50.020;14.422;2023-07-22T02:28:57;8.38;;;3.10;;
77170;SDS011;66144;50.020;14.422;2023-07-22T02:31:23;4.57;;;2.80;;
77170;SDS011;66144;50.020;14.422;2023-07-22T02:33:48;6.13;;;2.80;;
77170;SDS011;66144;50.020;14.422;2023-07-22T02:36:14;5.07;;;2.95;;
77170;SDS011;66144;50.020;14.422;2023-07-22T02:38:39;5.75;;;3.20;;
77170;SDS011;66144;50.020;14.422;2023-07-22T02:41:04;4.50;;;2.88;;
77170;SDS011;66144;50.020;14.422;2023-07-22T02:43:32;7.53;;;3.38;;
77170;SDS011;66144;50.020;14.422;2023-07-22T02:46:02;6.78;;;3.17;;
77170;SDS011;66144;50.020;14.422;2023-07-22T02:48:29;4.47;;;3.28;;
77170;SDS011;66144;50.020;14.422;2023-07-22T02:51:01;5.00;;;3.13;;
77170;SDS011;66144;50.020;14.422;2023-07-22T02:53:31;6.05;;;3.08;;
77170;SDS011;66144;50.020;14.422;2023-07-22T02:55:57;5.65;;;3.20;;
77170;SDS011;66144;50.020;14.422;2023-07-22T02:58:24;5.63;;;3.30;;
77170;SDS011;66144;50.020;14.422;2023-07-22T03:00:49;4.15;;;3.08;;
77170;SDS011;66144;50.020;14.422;2023-07-22T03:03:14;11.05;;;3.75;;
77170;SDS011;66144;50.020;14.422;2023-07-22T03:05:40;6.43;;;3.58;;
77170;SDS011;66144;50.020;14.422;2023-07-22T03:08:05;5.35;;;3.40;;
77170;SDS011;66144;50.020;14.422;2023-07-22T03:10:32;4.47;;;3.15;;
77170;SDS011;66144;50.020;14.422;2023-07-22T03:12:57;4.82;;;3.30;;
77170;SDS011;66144;50.020;14.422;2023-07-22T03:15:24;5.18;;;3.30;;
77170;SDS011;66144;50.020;14.422;2023-07-22T03:17:51;11.77;;;3.70;;
77170;SDS011;66144;50.020;14.422;2023-07-22T03:20:17;6.50;;;3.47;;
77170;SDS011;66144;50.020;14.422;2023-07-22T03:22:44;5.53;;;3.22;;
77170;SDS011;66144;50.020;14.422;2023-07-22T03:25:10;7.40;;;3.88;;
77170;SDS011;66144;50.020;14.422;2023-07-22T03:27:36;6.50;;;3.50;;
77170;SDS011;66144;50.020;14.422;2023-07-22T03:30:03;5.75;;;3.50;;
77170;SDS011;66144;50.020;14.422;2023-07-22T03:32:32;5.20;;;2.90;;
77170;SDS011;66144;50.020;14.422;2023-07-22T03:34:58;5.65;;;4.07;;
77170;SDS011;66144;50.020;14.422;2023-07-22T03:37:23;5.63;;;3.20;;
77170;SDS011;66144;50.020;14.422;2023-07-22T03:39:49;6.18;;;3.15;;
77170;SDS011;66144;50.020;14.422;2023-07-22T03:42:15;5.30;;;3.13;;
77170;SDS011;66144;50.020;14.422;2023-07-22T03:44:41;5.45;;;3.50;;
77170;SDS011;66144;50.020;14.422;2023-07-22T03:47:06;8.20;;;3.90;;
77170;SDS011;66144;50.020;14.422;2023-07-22T03:49:32;6.75;;;4.10;;
77170;SDS011;66144;50.020;14.422;2023-07-22T03:51:57;8.30;;;3.63;;
77170;SDS011;66144;50.020;14.422;2023-07-22T03:54:23;6.68;;;3.50;;
77170;SDS011;66144;50.020;14.422;2023-07-22T03:56:48;5.80;;;3.22;;
77170;SDS011;66144;50.020;14.422;2023-07-22T03:59:13;5.72;;;3.70;;
77170;SDS011;66144;50.020;14.422;2023-07-22T04:01:39;6.75;;;4.13;;
77170;SDS011;66144;50.020;14.422;2023-07-22T04:04:04;7.05;;;3.17;;
77170;SDS011;66144;50.020;14.422;2023-07-22T04:06:29;8.40;;;4.18;;
77170;SDS011;66144;50.020;14.422;2023-07-22T04:08:55;6.85;;;3.97;;
77170;SDS011;66144;50.020;14.422;2023-07-22T04:11:20;5.50;;;3.53;;
77170;SDS011;66144;50.020;14.422;2023-07-22T04:13:45;5.10;;;3.13;;
77170;SDS011;66144;50.020;14.422;2023-07-22T04:16:11;6.18;;;3.60;;
77170;SDS011;66144;50.020;14.422;2023-07-22T04:18:36;6.97;;;3.83;;
77170;SDS011;66144;50.020;14.422;2023-07-22T04:21:01;5.90;;;3.40;;
77170;SDS011;66144;50.020;14.422;2023-07-22T04:23:27;4.80;;;3.53;;
77170;SDS011;66144;50.020;14.422;2023-07-22T04:25:52;5.55;;;2.97;;
77170;SDS011;66144;50.020;14.422;2023-07-22T04:28:18;8.32;;;3.95;;
77170;SDS011;66144;50.020;14.422;2023-07-22T04:30:53;6.80;;;3.65;;
77170;SDS011;66144;50.020;14.422;2023-07-22T04:33:20;6.45;;;3.85;;
77170;SDS011;66144;50.020;14.422;2023-07-22T04:35:46;6.40;;;3.83;;
77170;SDS011;66144;50.020;14.422;2023-07-22T04:38:11;5.78;;;3.42;;
77170;SDS011;66144;50.020;14.422;2023-07-22T04:40:36;7.32;;;3.17;;
77170;SDS011;66144;50.020;14.422;2023-07-22T04:43:02;7.18;;;3.67;;
77170;SDS011;66144;50.020;14.422;2023-07-22T04:45:28;5.72;;;3.58;;
77170;SDS011;66144;50.020;14.422;2023-07-22T04:47:53;6.63;;;3.35;;
77170;SDS011;66144;50.020;14.422;2023-07-22T04:50:19;6.03;;;3.85;;
77170;SDS011;66144;50.020;14.422;2023-07-22T04:52:45;6.50;;;3.55;;
77170;SDS011;66144;50.020;14.422;2023-07-22T04:55:12;7.88;;;3.65;;
77170;SDS011;66144;50.020;14.422;2023-07-22T04:57:39;7.50;;;3.50;;
77170;SDS011;66144;50.020;14.422;2023-07-22T05:00:06;6.78;;;3.40;;
77170;SDS011;66144;50.020;14.422;2023-07-22T05:02:39;7.18;;;4.00;;
77170;SDS011;66144;50.020;14.422;2023-07-22T05:05:04;6.18;;;3.65;;
77170;SDS011;66144;50.020;14.422;2023-07-22T05:07:30;6.75;;;3.55;;
77170;SDS011;66144;50.020;14.422;2023-07-22T05:09:55;5.03;;;3.67;;
77170;SDS011;66144;50.020;14.422;2023-07-22T05:12:20;9.38;;;3.97;;
77170;SDS011;66144;50.020;14.422;2023-07-22T05:14:46;5.95;;;3.70;;
77170;SDS011;66144;50.020;14.422;2023-07-22T05:17:11;6.60;;;3.67;;
77170;SDS011;66144;50.020;14.422;2023-07-22T05:19:37;6.85;;;4.78;;
77170;SDS011;66144;50.020;14.422;2023-07-22T05:22:02;7.47;;;4.03;;
77170;SDS011;66144;50.020;14.422;2023-07-22T05:24:28;6.93;;;4.18;;
77170;SDS011;66144;50.020;14.422;2023-07-22T05:26:53;6.97;;;4.40;;
77170;SDS011;66144;50.020;14.422;2023-07-22T05:29:22;7.50;;;4.20;;
77170;SDS011;66144;50.020;14.422;2023-07-22T05:31:47;7.85;;;4.00;;
77170;SDS011;66144;50.020;14.422;2023-07-22T05:34:13;8.15;;;4.32;;
77170;SDS011;66144;50.020;14.422;2023-07-22T05:36:38;7.88;;;4.20;;
77170;SDS011;66144;50.020;14.422;2023-07-22T05:39:04;5.40;;;3.70;;
77170;SDS011;66144;50.020;14.422;2023-07-22T05:41:29;6.68;;;4.28;;
77170;SDS011;66144;50.020;14.422;2023-07-22T05:43:55;8.60;;;4.25;;
77170;SDS011;66144;50.020;14.422;2023-07-22T05:46:20;5.78;;;4.10;;
77170;SDS011;66144;50.020;14.422;2023-07-22T05:48:46;6.78;;;4.00;;
77170;SDS011;66144;50.020;14.422;2023-07-22T05:51:11;6.20;;;3.90;;
77170;SDS011;66144;50.020;14.422;2023-07-22T05:53:36;6.75;;;4.13;;
77170;SDS011;66144;50.020;14.422;2023-07-22T05:56:02;7.13;;;4.20;;
77170;SDS011;66144;50.020;14.422;2023-07-22T05:58:27;7.47;;;4.32;;
77170;SDS011;66144;50.020;14.422;2023-07-22T06:00:53;6.47;;;3.60;;
77170;SDS011;66144;50.020;14.422;2023-07-22T06:03:20;6.07;;;4.40;;
77170;SDS011;66144;50.020;14.422;2023-07-22T06:05:46;8.00;;;4.75;;
77170;SDS011;66144;50.020;14.422;2023-07-22T06:08:12;5.95;;;4.57;;
77170;SDS011;66144;50.020;14.422;2023-07-22T06:10:37;7.10;;;5.10;;
77170;SDS011;66144;50.020;14.422;2023-07-22T06:13:03;7.45;;;4.72;;
77170;SDS011;66144;50.020;14.422;2023-07-22T06:15:29;7.18;;;5.10;;
77170;SDS011;66144;50.020;14.422;2023-07-22T06:17:55;5.75;;;4.50;;
77170;SDS011;66144;50.020;14.422;2023-07-22T06:20:20;8.18;;;4.60;;
77170;SDS011;66144;50.020;14.422;2023-07-22T06:22:46;10.82;;;4.28;;
77170;SDS011;66144;50.020;14.422;2023-07-22T06:25:11;8.20;;;5.10;;
77170;SDS011;66144;50.020;14.422;2023-07-22T06:27:37;10.43;;;5.13;;
77170;SDS011;66144;50.020;14.422;2023-07-22T06:30:03;6.20;;;4.80;;
77170;SDS011;66144;50.020;14.422;2023-07-22T06:32:29;8.98;;;5.10;;
77170;SDS011;66144;50.020;14.422;2023-07-22T06:34:55;7.03;;;4.43;;
77170;SDS011;66144;50.020;14.422;2023-07-22T06:37:22;6.93;;;4.55;;
77170;SDS011;66144;50.020;14.422;2023-07-22T06:39:48;8.60;;;4.93;;
77170;SDS011;66144;50.020;14.422;2023-07-22T06:42:14;6.53;;;4.93;;
77170;SDS011;66144;50.020;14.422;2023-07-22T06:44:39;6.85;;;5.00;;
77170;SDS011;66144;50.020;14.422;2023-07-22T06:47:04;9.07;;;5.38;;
77170;SDS011;66144;50.020;14.422;2023-07-22T06:49:30;6.85;;;4.78;;
77170;SDS011;66144;50.020;14.422;2023-07-22T06:51:55;7.30;;;5.10;;
77170;SDS011;66144;50.020;14.422;2023-07-22T06:54:21;8.15;;;4.63;;
77170;SDS011;66144;50.020;14.422;2023-07-22T06:56:46;7.13;;;4.63;;
77170;SDS011;66144;50.020;14.422;2023-07-22T06:59:12;8.35;;;4.88;;
77170;SDS011;66144;50.020;14.422;2023-07-22T07:01:37;9.20;;;4.88;;
77170;SDS011;66144;50.020;14.422;2023-07-22T07:04:03;7.88;;;4.70;;
77170;SDS011;66144;50.020;14.422;2023-07-22T07:06:28;6.75;;;4.15;;
77170;SDS011;66144;50.020;14.422;2023-07-22T07:08:54;7.30;;;4.30;;
77170;SDS011;66144;50.020;14.422;2023-07-22T07:11:20;6.38;;;4.13;;
77170;SDS011;66144;50.020;14.422;2023-07-22T07:13:45;9.30;;;4.45;;
77170;SDS011;66144;50.020;14.422;2023-07-22T07:16:27;5.25;;;3.63;;
77170;SDS011;66144;50.020;14.422;2023-07-22T07:18:53;4.72;;;3.58;;
77170;SDS011;66144;50.020;14.422;2023-07-22T07:21:20;4.50;;;3.38;;
77170;SDS011;66144;50.020;14.422;2023-07-22T07:23:46;5.82;;;3.75;;
77170;SDS011;66144;50.020;14.422;2023-07-22T07:26:12;4.80;;;3.60;;
77170;SDS011;66144;50.020;14.422;2023-07-22T07:28:38;4.57;;;3.13;;
77170;SDS011;66144;50.020;14.422;2023-07-22T07:31:03;5.45;;;3.22;;
77170;SDS011;66144;50.020;14.422;2023-07-22T07:33:28;4.38;;;2.55;;
77170;SDS011;66144;50.020;14.422;2023-07-22T07:35:54;4.95;;;3.05;;
77170;SDS011;66144;50.020;14.422;2023-07-22T07:38:19;4.00;;;2.70;;
77170;SDS011;66144;50.020;14.422;2023-07-22T07:40:45;3.90;;;2.95;;
77170;SDS011;66144;50.020;14.422;2023-07-22T07:43:10;4.70;;;2.72;;
77170;SDS011;66144;50.020;14.422;2023-07-22T07:45:38;4.30;;;2.78;;
77170;SDS011;66144;50.020;14.422;2023-07-22T07:48:05;4.88;;;2.50;;
77170;SDS011;66144;50.020;14.422;2023-07-22T07:50:31;4.68;;;2.63;;
77170;SDS011;66144;50.020;14.422;2023-07-22T07:52:57;5.35;;;2.90;;
77170;SDS011;66144;50.020;14.422;2023-07-22T07:55:23;4.82;;;2.55;;
77170;SDS011;66144;50.020;14.422;2023-07-22T07:57:49;3.63;;;2.70;;
77170;SDS011;66144;50.020;14.422;2023-07-22T08:00:15;4.05;;;2.58;;
77170;SDS011;66144;50.020;14.422;2023-07-22T08:02:40;3.78;;;2.50;;
77170;SDS011;66144;50.020;14.422;2023-07-22T08:05:06;3.95;;;2.55;;
77170;SDS011;66144;50.020;14.422;2023-07-22T08:07:31;4.65;;;2.80;;
77170;SDS011;66144;50.020;14.422;2023-07-22T08:09:57;4.30;;;2.47;;
77170;SDS011;66144;50.020;14.422;2023-07-22T08:12:23;3.70;;;2.55;;
77170;SDS011;66144;50.020;14.422;2023-07-22T08:14:48;4.95;;;2.95;;
77170;SDS011;66144;50.020;14.422;2023-07-22T08:17:14;4.28;;;2.55;;
77170;SDS011;66144;50.020;14.422;2023-07-22T08:19:39;4.43;;;2.78;;
77170;SDS011;66144;50.020;14.422;2023-07-22T08:22:05;4.70;;;2.67;;
77170;SDS011;66144;50.020;14.422;2023-07-22T08:24:31;4.22;;;2.50;;
77170;SDS011;66144;50.020;14.422;2023-07-22T08:26:57;4.45;;;2.47;;
77170;SDS011;66144;50.020;14.422;2023-07-22T08:29:23;3.50;;;2.40;;
77170;SDS011;66144;50.020;14.422;2023-07-22T08:31:49;5.70;;;3.13;;
77170;SDS011;66144;50.020;14.422;2023-07-22T08:34:14;4.47;;;2.83;;
77170;SDS011;66144;50.020;14.422;2023-07-22T08:36:40;4.50;;;2.78;;
77170;SDS011;66144;50.020;14.422;2023-07-22T08:39:07;4.20;;;2.83;;
77170;SDS011;66144;50.020;14.422;2023-07-22T08:41:32;3.97;;;2.25;;
77170;SDS011;66144;50.020;14.422;2023-07-22T08:43:59;2.95;;;2.22;;
77170;SDS011;66144;50.020;14.422;2023-07-22T08:46:28;3.50;;;2.42;;
77170;SDS011;66144;50.020;14.422;2023-07-22T08:49:00;4.38;;;2.72;;
77170;SDS011;66144;50.020;14.422;2023-07-22T08:51:26;4.90;;;2.70;;
77170;SDS011;66144;50.020;14.422;2023-07-22T08:53:55;4.50;;;2.75;;
77170;SDS011;66144;50.020;14.422;2023-07-22T08:56:24;3.50;;;2.60;;
77170;SDS011;66144;50.020;14.422;2023-07-22T08:58:53;4.03;;;2.90;;
77170;SDS011;66144;50.020;14.422;2023-07-22T09:01:20;3.45;;;2.25;;
77170;SDS011;66144;50.020;14.422;2023-07-22T09:03:46;2.92;;;2.35;;
77170;SDS011;66144;50.020;14.422;2023-07-22T09:06:12;3.78;;;2.35;;
77170;SDS011;66144;50.020;14.422;2023-07-22T09:08:38;5.07;;;2.42;;
77170;SDS011;66144;50.020;14.422;2023-07-22T09:11:04;3.58;;;2.50;;
77170;SDS011;66144;50.020;14.422;2023-07-22T09:13:29;4.07;;;2.63;;
77170;SDS011;66144;50.020;14.422;2023-07-22T09:15:59;4.57;;;2.22;;
77170;SDS011;66144;50.020;14.422;2023-07-22T09:18:25;3.92;;;2.80;;
77170;SDS011;66144;50.020;14.422;2023-07-22T09:20:51;3.75;;;2.67;;
77170;SDS011;66144;50.020;14.422;2023-07-22T09:23:16;4.25;;;2.50;;
77170;SDS011;66144;50.020;14.422;2023-07-22T09:25:42;3.13;;;2.20;;
77170;SDS011;66144;50.020;14.422;2023-07-22T09:28:08;4.88;;;2.78;;
77170;SDS011;66144;50.020;14.422;2023-07-22T09:30:35;4.18;;;2.63;;
77170;SDS011;66144;50.020;14.422;2023-07-22T09:33:03;4.47;;;2.47;;
77170;SDS011;66144;50.020;14.422;2023-07-22T09:35:44;4.18;;;2.42;;
77170;SDS011;66144;50.020;14.422;2023-07-22T09:38:10;4.32;;;2.95;;
77170;SDS011;66144;50.020;14.422;2023-07-22T09:40:36;4.68;;;2.80;;
77170;SDS011;66144;50.020;14.422;2023-07-22T09:43:05;4.55;;;2.58;;
77170;SDS011;66144;50.020;14.422;2023-07-22T09:45:31;5.22;;;2.97;;
77170;SDS011;66144;50.020;14.422;2023-07-22T09:47:57;4.32;;;2.40;;
77170;SDS011;66144;50.020;14.422;2023-07-22T09:50:24;4.18;;;2.60;;
77170;SDS011;66144;50.020;14.422;2023-07-22T09:55:24;4.00;;;2.80;;
77170;SDS011;66144;50.020;14.422;2023-07-22T09:57:52;3.90;;;2.83;;
77170;SDS011;66144;50.020;14.422;2023-07-22T10:00:19;5.53;;;2.45;;
77170;SDS011;66144;50.020;14.422;2023-07-22T10:02:45;5.45;;;2.75;;
77170;SDS011;66144;50.020;14.422;2023-07-22T10:05:17;5.60;;;2.70;;
77170;SDS011;66144;50.020;14.422;2023-07-22T10:10:32;4.32;;;2.65;;
77170;SDS011;66144;50.020;14.422;2023-07-22T10:12:59;4.20;;;2.50;;
77170;SDS011;66144;50.020;14.422;2023-07-22T10:15:25;4.43;;;2.90;;
77170;SDS011;66144;50.020;14.422;2023-07-22T10:17:53;3.70;;;2.70;;
77170;SDS011;66144;50.020;14.422;2023-07-22T10:20:20;3.38;;;2.42;;
77170;SDS011;66144;50.020;14.422;2023-07-22T10:22:48;3.85;;;2.90;;
77170;SDS011;66144;50.020;14.422;2023-07-22T10:25:15;4.00;;;2.33;;
77170;SDS011;66144;50.020;14.422;2023-07-22T10:27:42;3.45;;;2.47;;
77170;SDS011;66144;50.020;14.422;2023-07-22T10:30:14;4.07;;;2.60;;
77170;SDS011;66144;50.020;14.422;2023-07-22T10:32:42;3.35;;;2.40;;
77170;SDS011;66144;50.020;14.422;2023-07-22T10:35:09;3.97;;;2.75;;
77170;SDS011;66144;50.020;14.422;2023-07-22T10:37:36;4.78;;;3.13;;
77170;SDS011;66144;50.020;14.422;2023-07-22T10:40:25;4.88;;;2.60;;
77170;SDS011;66144;50.020;14.422;2023-07-22T10:42:59;3.17;;;2.15;;
77170;SDS011;66144;50.020;14.422;2023-07-22T10:45:30;3.55;;;2.42;;
77170;SDS011;66144;50.020;14.422;2023-07-22T10:48:03;5.18;;;2.97;;
77170;SDS011;66144;50.020;14.422;2023-07-22T10:50:37;3.92;;;2.47;;
77170;SDS011;66144;50.020;14.422;2023-07-22T10:53:03;3.30;;;2.20;;
77170;SDS011;66144;50.020;14.422;2023-07-22T10:55:29;5.72;;;2.50;;
77170;SDS011;66144;50.020;14.422;2023-07-22T10:57:54;4.38;;;2.50;;
77170;SDS011;66144;50.020;14.422;2023-07-22T11:00:21;4.38;;;2.42;;
77170;SDS011;66144;50.020;14.422;2023-07-22T11:03:32;6.10;;;2.83;;
77170;SDS011;66144;50.020;14.422;2023-07-22T11:05:49;3.58;;;2.28;;
77170;SDS011;66144;50.020;14.422;2023-07-22T11:08:16;3.58;;;2.42;;
77170;SDS011;66144;50.020;14.422;2023-07-22T11:10:54;4.68;;;2.20;;
77170;SDS011;66144;50.020;14.422;2023-07-22T11:13:26;5.07;;;2.13;;
77170;SDS011;66144;50.020;14.422;2023-07-22T11:15:57;5.82;;;3.00;;
77170;SDS011;66144;50.020;14.422;2023-07-22T11:18:34;4.03;;;2.35;;
77170;SDS011;66144;50.020;14.422;2023-07-22T11:21:09;4.15;;;2.40;;
77170;SDS011;66144;50.020;14.422;2023-07-22T11:23:35;6.32;;;2.67;;
77170;SDS011;66144;50.020;14.422;2023-07-22T11:26:01;3.63;;;2.60;;
77170;SDS011;66144;50.020;14.422;2023-07-22T11:28:27;3.17;;;2.13;;
77170;SDS011;66144;50.020;14.422;2023-07-22T11:30:52;4.20;;;2.55;;
77170;SDS011;66144;50.020;14.422;2023-07-22T11:33:18;3.33;;;1.98;;
77170;SDS011;66144;50.020;14.422;2023-07-22T11:35:44;3.50;;;2.50;;
77170;SDS011;66144;50.020;14.422;2023-07-22T11:38:12;3.88;;;2.15;;
77170;SDS011;66144;50.020;14.422;2023-07-22T11:40:37;4.47;;;2.75;;
77170;SDS011;66144;50.020;14.422;2023-07-22T11:43:03;3.28;;;2.10;;
77170;SDS011;66144;50.020;14.422;2023-07-22T11:45:29;5.68;;;2.40;;
77170;SDS011;66144;50.020;14.422;2023-07-22T11:47:55;3.95;;;2.38;;
77170;SDS011;66144;50.020;14.422;2023-07-22T11:50:31;3.28;;;1.80;;
77170;SDS011;66144;50.020;14.422;2023-07-22T11:52:58;2.78;;;1.70;;
77170;SDS011;66144;50.020;14.422;2023-07-22T11:55:23;9.77;;;2.28;;
77170;SDS011;66144;50.020;14.422;2023-07-22T11:57:52;3.22;;;1.95;;
77170;SDS011;66144;50.020;14.422;2023-07-22T12:00:18;3.28;;;2.05;;
77170;SDS011;66144;50.020;14.422;2023-07-22T12:02:44;3.50;;;2.17;;
77170;SDS011;66144;50.020;14.422;2023-07-22T12:05:09;5.05;;;2.17;;
77170;SDS011;66144;50.020;14.422;2023-07-22T12:07:35;6.22;;;2.60;;
77170;SDS011;66144;50.020;14.422;2023-07-22T12:10:03;3.30;;;2.20;;
77170;SDS011;66144;50.020;14.422;2023-07-22T12:12:37;7.38;;;2.40;;
77170;SDS011;66144;50.020;14.422;2023-07-22T12:18:23;4.35;;;2.50;;
77170;SDS011;66144;50.020;14.422;2023-07-22T12:20:31;4.65;;;2.65;;
77170;SDS011;66144;50.020;14.422;2023-07-22T12:22:58;3.83;;;2.45;;
77170;SDS011;66144;50.020;14.422;2023-07-22T12:25:24;3.45;;;2.38;;
77170;SDS011;66144;50.020;14.422;2023-07-22T12:27:50;4.45;;;2.50;;
77170;SDS011;66144;50.020;14.422;2023-07-22T12:30:16;3.75;;;2.50;;
77170;SDS011;66144;50.020;14.422;2023-07-22T12:32:42;4.95;;;2.40;;
77170;SDS011;66144;50.020;14.422;2023-07-22T12:35:08;4.63;;;2.38;;
77170;SDS011;66144;50.020;14.422;2023-07-22T12:37:34;3.80;;;2.30;;
77170;SDS011;66144;50.020;14.422;2023-07-22T12:40:00;3.47;;;2.13;;
77170;SDS011;66144;50.020;14.422;2023-07-22T12:42:26;5.22;;;2.33;;
77170;SDS011;66144;50.020;14.422;2023-07-22T12:44:51;3.92;;;1.95;;
77170;SDS011;66144;50.020;14.422;2023-07-22T12:47:17;3.58;;;1.73;;
77170;SDS011;66144;50.020;14.422;2023-07-22T12:49:43;5.55;;;2.20;;
77170;SDS011;66144;50.020;14.422;2023-07-22T12:52:08;5.22;;;2.05;;
77170;SDS011;66144;50.020;14.422;2023-07-22T12:54:37;4.15;;;2.20;;
77170;SDS011;66144;50.020;14.422;2023-07-22T12:57:03;4.53;;;2.35;;
77170;SDS011;66144;50.020;14.422;2023-07-22T12:59:29;4.95;;;2.05;;
77170;SDS011;66144;50.020;14.422;2023-07-22T13:01:55;3.42;;;2.05;;
77170;SDS011;66144;50.020;14.422;2023-07-22T13:04:22;3.30;;;2.22;;
77170;SDS011;66144;50.020;14.422;2023-07-22T13:06:49;4.30;;;2.40;;
77170;SDS011;66144;50.020;14.422;2023-07-22T13:09:15;5.70;;;2.50;;
77170;SDS011;66144;50.020;14.422;2023-07-22T13:11:40;4.38;;;2.20;;
77170;SDS011;66144;50.020;14.422;2023-07-22T13:14:05;5.55;;;2.53;;
77170;SDS011;66144;50.020;14.422;2023-07-22T13:16:31;3.95;;;2.42;;
77170;SDS011;66144;50.020;14.422;2023-07-22T13:18:56;3.53;;;2.25;;
77170;SDS011;66144;50.020;14.422;2023-07-22T13:21:25;5.50;;;2.47;;
77170;SDS011;66144;50.020;14.422;2023-07-22T13:23:51;4.70;;;2.50;;
77170;SDS011;66144;50.020;14.422;2023-07-22T13:26:16;4.18;;;2.40;;
77170;SDS011;66144;50.020;14.422;2023-07-22T13:28:43;4.30;;;2.53;;
77170;SDS011;66144;50.020;14.422;2023-07-22T13:31:08;2.80;;;1.98;;
77170;SDS011;66144;50.020;14.422;2023-07-22T13:33:33;3.58;;;2.10;;
77170;SDS011;66144;50.020;14.422;2023-07-22T13:35:59;6.07;;;2.72;;
77170;SDS011;66144;50.020;14.422;2023-07-22T13:38:24;3.88;;;2.67;;
77170;SDS011;66144;50.020;14.422;2023-07-22T13:40:50;4.18;;;2.40;;
77170;SDS011;66144;50.020;14.422;2023-07-22T13:43:16;3.72;;;2.42;;
77170;SDS011;66144;50.020;14.422;2023-07-22T13:45:41;5.63;;;2.85;;
77170;SDS011;66144;50.020;14.422;2023-07-22T13:48:07;3.60;;;2.40;;
77170;SDS011;66144;50.020;14.422;2023-07-22T13:50:32;3.70;;;2.13;;
77170;SDS011;66144;50.020;14.422;2023-07-22T13:52:58;4.57;;;2.70;;
77170;SDS011;66144;50.020;14.422;2023-07-22T13:55:23;4.95;;;2.53;;
77170;SDS011;66144;50.020;14.422;2023-07-22T13:57:48;5.03;;;2.45;;
77170;SDS011;66144;50.020;14.422;2023-07-22T14:00:14;4.45;;;2.30;;
77170;SDS011;66144;50.020;14.422;2023-07-22T14:02:41;5.15;;;2.42;;
77170;SDS011;66144;50.020;14.422;2023-07-22T14:05:06;3.92;;;2.28;;
77170;SDS011;66144;50.020;14.422;2023-07-22T14:07:32;5.60;;;2.60;;
77170;SDS011;66144;50.020;14.422;2023-07-22T14:09:58;10.02;;;2.65;;
77170;SDS011;66144;50.020;14.422;2023-07-22T14:12:23;4.18;;;2.42;;
77170;SDS011;66144;50.020;14.422;2023-07-22T14:14:49;5.13;;;2.60;;
77170;SDS011;66144;50.020;14.422;2023-07-22T14:17:14;5.80;;;3.08;;
77170;SDS011;66144;50.020;14.422;2023-07-22T14:19:39;3.97;;;2.63;;
77170;SDS011;66144;50.020;14.422;2023-07-22T14:22:05;4.00;;;2.67;;
77170;SDS011;66144;50.020;14.422;2023-07-22T14:24:30;4.20;;;2.50;;
77170;SDS011;66144;50.020;14.422;2023-07-22T14:26:55;5.00;;;2.83;;
77170;SDS011;66144;50.020;14.422;2023-07-22T14:29:21;6.15;;;2.63;;
77170;SDS011;66144;50.020;14.422;2023-07-22T14:31:47;4.25;;;2.63;;
77170;SDS011;66144;50.020;14.422;2023-07-22T14:34:12;5.68;;;3.00;;
77170;SDS011;66144;50.020;14.422;2023-07-22T14:36:38;4.00;;;2.83;;